createdAt,value
2022-12-07T00:04:44.414Z,3.00
2022-12-07T00:09:46.418Z,3.03
2022-12-07T00:14:47.842Z,3.03
2022-12-07T00:19:49.290Z,3.00
2022-12-07T00:24:50.705Z,3.04
2022-12-07T00:29:52.131Z,3.02
2022-12-07T00:34:53.552Z,3.10
2022-12-07T00:39:54.976Z,3.15
2022-12-07T00:44:56.422Z,3.18
2022-12-07T00:49:57.830Z,3.26
2022-12-07T00:54:59.239Z,3.29
2022-12-07T01:00:01.524Z,3.31
2022-12-07T01:05:03.299Z,3.29
2022-12-07T01:10:05.512Z,3.26
2022-12-07T01:15:08.240Z,3.33
2022-12-07T01:20:10.509Z,3.42
2022-12-07T01:25:12.329Z,3.43
2022-12-07T01:30:14.290Z,3.37
2022-12-07T01:35:15.794Z,3.38
2022-12-07T01:40:17.256Z,3.45
2022-12-07T01:45:18.642Z,3.55
2022-12-07T01:50:22.279Z,3.55
2022-12-07T01:55:25.001Z,3.44
2022-12-07T02:00:26.463Z,3.33
2022-12-07T02:05:28.425Z,3.30
2022-12-07T02:10:32.628Z,3.17
2022-12-07T02:15:37.999Z,3.11
2022-12-07T02:20:51.137Z,3.12
2022-12-07T02:26:11.667Z,3.19
2022-12-07T02:31:19.607Z,3.19
2022-12-07T02:36:25.415Z,3.22
2022-12-07T02:41:36.751Z,3.29
2022-12-07T02:46:43.023Z,3.33
2022-12-07T02:51:47.075Z,3.35
2022-12-07T02:57:17.969Z,3.36
2022-12-07T03:02:36.436Z,3.34
2022-12-07T03:08:27.192Z,3.32
2022-12-07T03:13:46.707Z,3.29
2022-12-07T03:18:57.076Z,3.29
2022-12-07T03:24:05.960Z,3.28
2022-12-07T03:29:20.181Z,3.19
2022-12-07T03:34:31.427Z,3.09
2022-12-07T03:40:11.809Z,2.99
2022-12-07T03:45:14.458Z,2.90
2022-12-07T03:50:49.683Z,2.91
2022-12-07T03:55:53.423Z,2.87
2022-12-07T04:00:55.075Z,2.78
2022-12-07T04:05:56.894Z,2.73
2022-12-07T04:10:58.429Z,2.75
2022-12-07T04:15:59.890Z,2.71
2022-12-07T04:21:01.339Z,2.65
2022-12-07T04:26:02.894Z,2.61
2022-12-07T04:31:04.425Z,2.56
2022-12-07T04:36:06.456Z,2.58
2022-12-07T04:41:09.016Z,2.59
2022-12-07T04:46:10.525Z,2.54
2022-12-07T04:51:11.982Z,2.50
2022-12-07T04:56:13.863Z,2.49
2022-12-07T05:01:17.502Z,2.47
2022-12-07T05:06:19.091Z,2.47
2022-12-07T05:11:38.810Z,2.47
2022-12-07T05:16:41.886Z,2.52
2022-12-07T05:21:43.569Z,2.56
2022-12-07T05:26:46.059Z,2.63
2022-12-07T05:31:47.500Z,2.62
2022-12-07T05:36:49.113Z,2.60
2022-12-07T05:42:09.046Z,2.64
2022-12-07T05:47:11.544Z,2.67
2022-12-07T05:52:13.122Z,2.71
2022-12-07T05:57:14.802Z,2.71
2022-12-07T06:02:17.828Z,2.80
2022-12-07T06:07:19.297Z,2.85
2022-12-07T06:12:35.575Z,2.91
2022-12-07T06:17:37.637Z,3.00
2022-12-07T06:22:39.075Z,3.10
2022-12-07T06:27:40.488Z,3.16
2022-12-07T06:32:41.895Z,3.18
2022-12-07T06:37:43.380Z,3.14
2022-12-07T06:42:44.948Z,3.10
2022-12-07T06:47:46.958Z,3.12
2022-12-07T06:52:48.781Z,3.14
2022-12-07T06:57:50.258Z,3.14
2022-12-07T07:02:51.701Z,3.16
2022-12-07T07:08:20.946Z,3.10
2022-12-07T07:13:14.609Z,2.83
2022-12-07T07:18:16.094Z,2.64
2022-12-07T07:23:17.960Z,2.58
2022-12-07T07:28:19.388Z,2.55
2022-12-07T07:33:20.817Z,2.60
2022-12-07T07:38:22.269Z,2.68
2022-12-07T07:43:23.795Z,2.75
2022-12-07T07:48:26.198Z,2.79
2022-12-07T07:53:27.629Z,2.81
2022-12-07T07:58:29.100Z,2.91
2022-12-07T08:03:30.587Z,2.98
2022-12-07T08:08:32.588Z,3.04
2022-12-07T08:13:34.173Z,3.08
2022-12-07T08:18:40.646Z,3.17
2022-12-07T08:23:42.480Z,3.22
2022-12-07T08:28:44.458Z,3.35
2022-12-07T08:33:47.725Z,3.33
2022-12-07T08:39:22.518Z,3.38
2022-12-07T08:44:10.734Z,3.41
2022-12-07T08:49:17.337Z,3.48
2022-12-07T08:54:19.877Z,3.56
2022-12-07T08:59:21.864Z,3.59
2022-12-07T09:04:23.327Z,3.62
2022-12-07T09:09:24.855Z,3.74
2022-12-07T09:14:26.295Z,3.83
2022-12-07T09:19:27.908Z,3.92
2022-12-07T09:24:29.396Z,4.01
2022-12-07T09:29:30.807Z,4.03
2022-12-07T09:34:33.118Z,3.93
2022-12-07T09:39:34.714Z,3.93
2022-12-07T09:44:36.601Z,3.98
2022-12-07T09:49:38.136Z,4.01
2022-12-07T09:54:44.737Z,4.08
2022-12-07T09:59:46.252Z,4.15
2022-12-07T10:04:47.795Z,4.17
2022-12-07T10:09:49.812Z,4.25
2022-12-07T10:15:07.965Z,4.35
2022-12-07T10:20:13.109Z,4.56
2022-12-07T10:25:20.916Z,4.67
2022-12-07T10:30:22.333Z,4.70
2022-12-07T10:35:30.119Z,4.77
2022-12-07T10:40:38.723Z,4.70
2022-12-07T10:46:19.440Z,4.63
2022-12-07T10:51:47.704Z,4.58
2022-12-07T10:57:05.779Z,4.58
2022-12-07T11:02:21.999Z,4.63
2022-12-07T11:07:41.941Z,4.73
2022-12-07T11:13:05.373Z,4.65
2022-12-07T11:18:13.068Z,4.61
2022-12-07T11:23:25.645Z,4.53
2022-12-07T11:29:05.715Z,4.18
2022-12-07T11:34:23.254Z,4.02
2022-12-07T11:39:28.152Z,3.99
2022-12-07T11:44:33.664Z,4.04
2022-12-07T11:49:43.371Z,4.14
2022-12-07T11:54:49.280Z,4.22
2022-12-07T11:59:54.823Z,4.32
2022-12-07T12:05:06.030Z,4.35
2022-12-07T12:10:15.483Z,4.24
2022-12-07T12:15:50.490Z,4.16
2022-12-07T12:20:59.392Z,3.90
2022-12-07T12:26:04.607Z,3.02
2022-12-07T12:31:12.226Z,2.42
2022-12-07T12:36:16.756Z,2.16
2022-12-07T12:41:36.687Z,2.15
2022-12-07T12:46:49.649Z,2.10
2022-12-07T12:51:51.446Z,2.15
2022-12-07T12:57:15.713Z,2.31
2022-12-07T13:02:23.225Z,2.47
2022-12-07T13:07:52.677Z,2.71
2022-12-07T13:13:01.582Z,2.94
2022-12-07T13:18:05.026Z,3.15
2022-12-07T13:23:08.046Z,3.36
2022-12-07T13:28:17.597Z,3.52
2022-12-07T13:33:20.155Z,3.65
2022-12-07T13:38:29.791Z,3.76
2022-12-07T13:43:31.488Z,3.75
2022-12-07T13:48:45.124Z,3.75
2022-12-07T13:53:53.228Z,3.76
2022-12-07T13:58:55.511Z,3.78
2022-12-07T14:03:57.102Z,3.80
2022-12-07T14:09:18.761Z,3.89
2022-12-07T14:14:36.501Z,3.90
2022-12-07T14:19:48.358Z,3.92
2022-12-07T14:24:50.947Z,3.92
2022-12-07T14:29:52.635Z,3.87
2022-12-07T14:35:13.725Z,3.82
2022-12-07T14:40:19.893Z,3.77
2022-12-07T14:45:23.722Z,3.82
2022-12-07T14:50:25.464Z,3.78
2022-12-07T14:55:29.593Z,3.72
2022-12-07T15:00:31.096Z,3.70
2022-12-07T15:05:34.049Z,3.72
2022-12-07T15:10:39.460Z,3.77
2022-12-07T15:15:40.922Z,3.79
2022-12-07T15:20:42.427Z,3.73
2022-12-07T15:25:45.549Z,3.68
2022-12-07T15:30:47.004Z,3.61
2022-12-07T15:35:48.534Z,3.53
2022-12-07T15:40:50.030Z,3.48
2022-12-07T15:45:51.459Z,3.48
2022-12-07T15:50:52.912Z,3.52
2022-12-07T15:55:54.358Z,3.53
2022-12-07T16:00:55.755Z,3.60
2022-12-07T16:05:57.158Z,3.63
2022-12-07T16:10:58.595Z,3.62
2022-12-07T16:16:08.294Z,3.55
2022-12-07T16:21:09.855Z,3.48
2022-12-07T16:26:19.698Z,3.45
2022-12-07T16:31:23.896Z,3.42
2022-12-07T16:37:01.915Z,3.43
2022-12-07T16:41:49.475Z,3.39
2022-12-07T16:46:50.952Z,3.39
2022-12-07T16:52:14.963Z,3.43
2022-12-07T16:57:19.985Z,3.48
2022-12-07T17:09:46.573Z,3.61
2022-12-07T17:26:28.357Z,3.62
2022-12-07T17:31:33.840Z,3.61
2022-12-07T17:36:35.364Z,3.64
2022-12-07T17:41:55.903Z,3.66
2022-12-07T17:47:03.243Z,3.71
2022-12-07T17:52:23.597Z,3.75
2022-12-07T17:57:25.110Z,3.76
2022-12-07T18:02:26.643Z,3.75
2022-12-07T18:07:28.083Z,3.61
2022-12-07T18:12:29.500Z,3.50
2022-12-07T18:17:31.035Z,3.36
2022-12-07T18:22:32.451Z,3.20
2022-12-07T18:27:33.865Z,3.08
2022-12-07T18:32:35.258Z,3.04
2022-12-07T18:37:36.704Z,2.98
2022-12-07T18:42:38.130Z,3.05
2022-12-07T18:47:39.591Z,3.04
2022-12-07T18:52:41.005Z,3.07
2022-12-07T18:57:42.419Z,3.04
2022-12-07T19:02:43.869Z,3.05
2022-12-07T19:07:46.018Z,3.06
2022-12-07T19:12:48.354Z,3.11
2022-12-07T19:17:49.804Z,3.18
2022-12-07T19:22:51.192Z,3.23
2022-12-07T19:27:52.570Z,3.30
2022-12-07T19:32:53.951Z,3.33
2022-12-07T19:37:55.331Z,3.35
2022-12-07T19:42:56.727Z,3.37
2022-12-07T19:47:58.136Z,3.39
2022-12-07T19:52:59.537Z,3.45
2022-12-07T19:58:00.987Z,3.46
2022-12-07T20:03:02.502Z,3.48
2022-12-07T20:08:04.243Z,3.53
2022-12-07T20:13:24.539Z,3.56
2022-12-07T20:18:25.994Z,3.48
2022-12-07T20:23:29.275Z,3.43
2022-12-07T20:28:30.732Z,3.35
2022-12-07T20:33:32.395Z,3.30
2022-12-07T20:38:33.911Z,3.29
2022-12-07T20:43:35.310Z,3.26
2022-12-07T20:48:36.715Z,3.24
2022-12-07T20:53:38.176Z,3.22
2022-12-07T20:58:39.572Z,3.24
2022-12-07T21:03:41.177Z,3.30
2022-12-07T21:08:50.946Z,3.32
2022-12-07T21:13:52.331Z,3.32
2022-12-07T21:18:55.398Z,3.35
2022-12-07T21:24:02.040Z,3.36
2022-12-07T21:29:06.374Z,3.35
2022-12-07T21:34:07.782Z,3.37
2022-12-07T21:39:09.188Z,3.38
2022-12-07T21:44:10.614Z,3.40
2022-12-07T21:49:14.291Z,3.47
2022-12-07T21:54:15.692Z,3.56
2022-12-07T21:59:21.152Z,3.65
2022-12-07T22:04:25.280Z,3.72
2022-12-07T22:09:29.834Z,3.76
2022-12-07T22:14:49.783Z,3.79
2022-12-07T22:19:51.180Z,3.80
2022-12-07T22:24:52.635Z,3.81
2022-12-07T22:29:54.054Z,3.85
2022-12-07T22:34:55.464Z,3.88
2022-12-07T22:39:56.947Z,3.89
2022-12-07T22:44:58.344Z,3.89
2022-12-07T22:50:00.358Z,3.86
2022-12-07T22:55:02.236Z,3.86
2022-12-07T23:00:08.933Z,3.80
2022-12-07T23:05:11.659Z,3.72
2022-12-07T23:10:13.098Z,3.73
2022-12-07T23:15:14.502Z,3.77
2022-12-07T23:20:16.074Z,3.81
2022-12-07T23:25:17.654Z,3.80
2022-12-07T23:30:19.066Z,3.84
2022-12-07T23:35:20.513Z,3.87
2022-12-07T23:40:21.976Z,3.91
2022-12-07T23:45:23.388Z,3.93
2022-12-07T23:50:24.792Z,3.96
2022-12-07T23:55:26.206Z,3.99
